sensor_id;sensor_type;location;lat;lon;timestamp;P1;durP1;ratioP1;P2;durP2;ratioP2
74791;SDS011;63319;46.046;17.802;2023-01-29T00:02:22;12.23;;;7.32;;
74791;SDS011;63319;46.046;17.802;2023-01-29T00:05:25;11.48;;;6.63;;
74791;SDS011;63319;46.046;17.802;2023-01-29T00:08:29;10.88;;;6.25;;
74791;SDS011;63319;46.046;17.802;2023-01-29T00:11:35;11.37;;;6.53;;
74791;SDS011;63319;46.046;17.802;2023-01-29T00:14:38;12.27;;;7.43;;
74791;SDS011;63319;46.046;17.802;2023-01-29T00:17:41;11.60;;;7.45;;
74791;SDS011;63319;46.046;17.802;2023-01-29T00:20:44;11.43;;;6.50;;
74791;SDS011;63319;46.046;17.802;2023-01-29T00:23:47;11.65;;;7.10;;
74791;SDS011;63319;46.046;17.802;2023-01-29T00:26:51;11.13;;;6.87;;
74791;SDS011;63319;46.046;17.802;2023-01-29T00:29:54;12.63;;;7.13;;
74791;SDS011;63319;46.046;17.802;2023-01-29T00:33:18;10.90;;;6.82;;
74791;SDS011;63319;46.046;17.802;2023-01-29T00:36:21;12.93;;;6.82;;
74791;SDS011;63319;46.046;17.802;2023-01-29T00:39:24;12.00;;;6.65;;
74791;SDS011;63319;46.046;17.802;2023-01-29T00:42:37;11.23;;;7.00;;
74791;SDS011;63319;46.046;17.802;2023-01-29T00:45:59;11.57;;;6.37;;
74791;SDS011;63319;46.046;17.802;2023-01-29T00:49:05;11.73;;;6.88;;
74791;SDS011;63319;46.046;17.802;2023-01-29T00:52:08;10.77;;;6.22;;
74791;SDS011;63319;46.046;17.802;2023-01-29T00:55:26;10.52;;;6.15;;
74791;SDS011;63319;46.046;17.802;2023-01-29T00:58:29;10.73;;;6.20;;
74791;SDS011;63319;46.046;17.802;2023-01-29T01:01:36;11.07;;;6.83;;
74791;SDS011;63319;46.046;17.802;2023-01-29T01:04:57;10.48;;;6.22;;
74791;SDS011;63319;46.046;17.802;2023-01-29T01:08:09;11.02;;;6.10;;
74791;SDS011;63319;46.046;17.802;2023-01-29T01:11:32;10.68;;;6.20;;
74791;SDS011;63319;46.046;17.802;2023-01-29T01:14:36;11.83;;;6.63;;
74791;SDS011;63319;46.046;17.802;2023-01-29T01:17:38;12.23;;;6.57;;
74791;SDS011;63319;46.046;17.802;2023-01-29T01:20:42;11.10;;;6.45;;
74791;SDS011;63319;46.046;17.802;2023-01-29T01:23:45;11.18;;;6.63;;
74791;SDS011;63319;46.046;17.802;2023-01-29T01:26:53;11.80;;;6.75;;
74791;SDS011;63319;46.046;17.802;2023-01-29T01:29:56;11.30;;;6.73;;
74791;SDS011;63319;46.046;17.802;2023-01-29T01:32:59;11.30;;;7.00;;
74791;SDS011;63319;46.046;17.802;2023-01-29T01:36:03;10.80;;;6.38;;
74791;SDS011;63319;46.046;17.802;2023-01-29T01:39:12;11.75;;;6.85;;
74791;SDS011;63319;46.046;17.802;2023-01-29T01:42:15;11.27;;;6.63;;
74791;SDS011;63319;46.046;17.802;2023-01-29T01:48:29;10.77;;;6.70;;
74791;SDS011;63319;46.046;17.802;2023-01-29T01:51:34;11.68;;;6.07;;
74791;SDS011;63319;46.046;17.802;2023-01-29T01:54:42;11.55;;;6.65;;
74791;SDS011;63319;46.046;17.802;2023-01-29T01:57:47;10.57;;;6.18;;
74791;SDS011;63319;46.046;17.802;2023-01-29T02:00:54;11.57;;;6.97;;
74791;SDS011;63319;46.046;17.802;2023-01-29T02:04:02;10.33;;;6.73;;
74791;SDS011;63319;46.046;17.802;2023-01-29T02:07:26;12.93;;;6.63;;
74791;SDS011;63319;46.046;17.802;2023-01-29T02:10:48;11.20;;;6.60;;
74791;SDS011;63319;46.046;17.802;2023-01-29T02:13:51;11.15;;;6.65;;
74791;SDS011;63319;46.046;17.802;2023-01-29T02:17:00;9.83;;;5.63;;
74791;SDS011;63319;46.046;17.802;2023-01-29T02:27:08;9.82;;;5.85;;
74791;SDS011;63319;46.046;17.802;2023-01-29T02:30:22;11.95;;;6.75;;
74791;SDS011;63319;46.046;17.802;2023-01-29T02:37:08;10.20;;;6.20;;
74791;SDS011;63319;46.046;17.802;2023-01-29T02:40:27;11.05;;;6.18;;
74791;SDS011;63319;46.046;17.802;2023-01-29T02:43:43;11.25;;;7.03;;
74791;SDS011;63319;46.046;17.802;2023-01-29T02:46:56;9.88;;;6.25;;
74791;SDS011;63319;46.046;17.802;2023-01-29T02:53:47;11.07;;;5.90;;
74791;SDS011;63319;46.046;17.802;2023-01-29T02:57:28;11.43;;;5.78;;
74791;SDS011;63319;46.046;17.802;2023-01-29T03:00:37;10.98;;;6.43;;
74791;SDS011;63319;46.046;17.802;2023-01-29T03:03:51;10.07;;;6.32;;
74791;SDS011;63319;46.046;17.802;2023-01-29T03:06:59;11.00;;;6.40;;
74791;SDS011;63319;46.046;17.802;2023-01-29T03:10:06;11.03;;;7.07;;
74791;SDS011;63319;46.046;17.802;2023-01-29T03:13:51;10.93;;;6.22;;
74791;SDS011;63319;46.046;17.802;2023-01-29T03:16:51;10.20;;;5.90;;
74791;SDS011;63319;46.046;17.802;2023-01-29T03:19:56;10.98;;;6.22;;
74791;SDS011;63319;46.046;17.802;2023-01-29T03:23:04;11.40;;;6.17;;
74791;SDS011;63319;46.046;17.802;2023-01-29T03:26:14;10.53;;;6.07;;
74791;SDS011;63319;46.046;17.802;2023-01-29T03:29:39;10.30;;;6.03;;
74791;SDS011;63319;46.046;17.802;2023-01-29T03:33:22;10.70;;;6.20;;
74791;SDS011;63319;46.046;17.802;2023-01-29T03:36:29;10.75;;;6.28;;
74791;SDS011;63319;46.046;17.802;2023-01-29T03:39:39;10.33;;;5.93;;
74791;SDS011;63319;46.046;17.802;2023-01-29T03:46:07;11.00;;;6.40;;
74791;SDS011;63319;46.046;17.802;2023-01-29T03:49:22;10.95;;;5.97;;
74791;SDS011;63319;46.046;17.802;2023-01-29T03:59:31;10.43;;;6.10;;
74791;SDS011;63319;46.046;17.802;2023-01-29T04:03:21;11.15;;;6.45;;
74791;SDS011;63319;46.046;17.802;2023-01-29T04:06:37;9.93;;;5.43;;
74791;SDS011;63319;46.046;17.802;2023-01-29T04:13:18;9.40;;;5.80;;
74791;SDS011;63319;46.046;17.802;2023-01-29T04:16:25;11.03;;;6.10;;
74791;SDS011;63319;46.046;17.802;2023-01-29T04:19:49;10.00;;;6.15;;
74791;SDS011;63319;46.046;17.802;2023-01-29T04:22:52;12.45;;;6.97;;
74791;SDS011;63319;46.046;17.802;2023-01-29T04:32:49;12.70;;;7.10;;
74791;SDS011;63319;46.046;17.802;2023-01-29T04:46:06;10.23;;;5.77;;
74791;SDS011;63319;46.046;17.802;2023-01-29T04:52:56;11.98;;;6.45;;
74791;SDS011;63319;46.046;17.802;2023-01-29T04:59:38;10.07;;;6.30;;
74791;SDS011;63319;46.046;17.802;2023-01-29T05:02:46;11.17;;;5.97;;
74791;SDS011;63319;46.046;17.802;2023-01-29T05:05:50;10.67;;;5.90;;
74791;SDS011;63319;46.046;17.802;2023-01-29T05:08:55;10.43;;;6.03;;
74791;SDS011;63319;46.046;17.802;2023-01-29T05:11:59;10.23;;;5.88;;
74791;SDS011;63319;46.046;17.802;2023-01-29T05:15:06;10.85;;;6.00;;
74791;SDS011;63319;46.046;17.802;2023-01-29T05:18:14;12.10;;;6.30;;
74791;SDS011;63319;46.046;17.802;2023-01-29T05:21:19;9.73;;;5.93;;
74791;SDS011;63319;46.046;17.802;2023-01-29T05:24:24;10.45;;;5.82;;
74791;SDS011;63319;46.046;17.802;2023-01-29T05:27:30;11.27;;;6.30;;
74791;SDS011;63319;46.046;17.802;2023-01-29T05:30:55;9.82;;;5.63;;
74791;SDS011;63319;46.046;17.802;2023-01-29T05:33:59;10.87;;;5.90;;
74791;SDS011;63319;46.046;17.802;2023-01-29T05:37:01;10.87;;;6.10;;
74791;SDS011;63319;46.046;17.802;2023-01-29T05:40:05;10.88;;;6.20;;
74791;SDS011;63319;46.046;17.802;2023-01-29T05:43:28;11.30;;;6.20;;
74791;SDS011;63319;46.046;17.802;2023-01-29T05:46:31;10.93;;;6.22;;
74791;SDS011;63319;46.046;17.802;2023-01-29T05:49:34;11.20;;;5.87;;
74791;SDS011;63319;46.046;17.802;2023-01-29T05:52:39;9.97;;;5.27;;
74791;SDS011;63319;46.046;17.802;2023-01-29T05:55:43;10.18;;;5.72;;
74791;SDS011;63319;46.046;17.802;2023-01-29T05:58:47;10.32;;;5.85;;
74791;SDS011;63319;46.046;17.802;2023-01-29T06:01:52;10.20;;;6.00;;
74791;SDS011;63319;46.046;17.802;2023-01-29T06:04:55;9.50;;;5.70;;
74791;SDS011;63319;46.046;17.802;2023-01-29T06:07:58;10.13;;;5.67;;
74791;SDS011;63319;46.046;17.802;2023-01-29T06:11:01;10.70;;;5.78;;
74791;SDS011;63319;46.046;17.802;2023-01-29T06:14:05;10.23;;;5.55;;
74791;SDS011;63319;46.046;17.802;2023-01-29T06:17:09;10.50;;;6.22;;
74791;SDS011;63319;46.046;17.802;2023-01-29T06:20:13;10.80;;;6.13;;
74791;SDS011;63319;46.046;17.802;2023-01-29T06:23:16;11.53;;;6.47;;
74791;SDS011;63319;46.046;17.802;2023-01-29T06:26:19;11.10;;;6.60;;
74791;SDS011;63319;46.046;17.802;2023-01-29T06:29:22;10.52;;;5.72;;
74791;SDS011;63319;46.046;17.802;2023-01-29T06:32:26;11.10;;;6.03;;
74791;SDS011;63319;46.046;17.802;2023-01-29T06:35:29;11.20;;;6.10;;
74791;SDS011;63319;46.046;17.802;2023-01-29T06:38:32;11.27;;;6.10;;
74791;SDS011;63319;46.046;17.802;2023-01-29T06:41:35;10.43;;;6.13;;
74791;SDS011;63319;46.046;17.802;2023-01-29T06:44:38;9.35;;;5.55;;
74791;SDS011;63319;46.046;17.802;2023-01-29T06:47:41;10.02;;;5.55;;
74791;SDS011;63319;46.046;17.802;2023-01-29T06:50:43;10.00;;;6.30;;
74791;SDS011;63319;46.046;17.802;2023-01-29T06:53:46;10.30;;;5.80;;
74791;SDS011;63319;46.046;17.802;2023-01-29T06:56:50;11.02;;;6.22;;
74791;SDS011;63319;46.046;17.802;2023-01-29T06:59:53;9.65;;;5.20;;
74791;SDS011;63319;46.046;17.802;2023-01-29T07:02:56;11.32;;;5.68;;
74791;SDS011;63319;46.046;17.802;2023-01-29T07:05:59;10.83;;;6.00;;
74791;SDS011;63319;46.046;17.802;2023-01-29T07:09:02;10.60;;;5.70;;
74791;SDS011;63319;46.046;17.802;2023-01-29T07:12:06;9.73;;;5.90;;
74791;SDS011;63319;46.046;17.802;2023-01-29T07:15:10;10.65;;;5.82;;
74791;SDS011;63319;46.046;17.802;2023-01-29T07:18:14;10.38;;;6.28;;
74791;SDS011;63319;46.046;17.802;2023-01-29T07:21:17;10.67;;;6.27;;
74791;SDS011;63319;46.046;17.802;2023-01-29T07:24:19;10.97;;;6.07;;
74791;SDS011;63319;46.046;17.802;2023-01-29T07:27:23;10.82;;;5.85;;
74791;SDS011;63319;46.046;17.802;2023-01-29T07:30:26;11.63;;;7.13;;
74791;SDS011;63319;46.046;17.802;2023-01-29T07:33:33;9.23;;;5.50;;
74791;SDS011;63319;46.046;17.802;2023-01-29T07:36:36;10.47;;;6.40;;
74791;SDS011;63319;46.046;17.802;2023-01-29T07:39:39;10.80;;;6.17;;
74791;SDS011;63319;46.046;17.802;2023-01-29T07:42:42;11.32;;;6.28;;
74791;SDS011;63319;46.046;17.802;2023-01-29T07:45:45;9.85;;;5.78;;
74791;SDS011;63319;46.046;17.802;2023-01-29T07:48:48;9.60;;;5.68;;
74791;SDS011;63319;46.046;17.802;2023-01-29T07:51:55;10.23;;;6.07;;
74791;SDS011;63319;46.046;17.802;2023-01-29T07:54:57;10.03;;;5.90;;
74791;SDS011;63319;46.046;17.802;2023-01-29T07:58:01;10.85;;;6.20;;
74791;SDS011;63319;46.046;17.802;2023-01-29T08:01:05;11.68;;;6.63;;
74791;SDS011;63319;46.046;17.802;2023-01-29T08:04:09;11.63;;;6.32;;
74791;SDS011;63319;46.046;17.802;2023-01-29T08:07:12;10.03;;;6.03;;
74791;SDS011;63319;46.046;17.802;2023-01-29T08:10:15;9.77;;;5.20;;
74791;SDS011;63319;46.046;17.802;2023-01-29T08:13:19;11.38;;;5.85;;
74791;SDS011;63319;46.046;17.802;2023-01-29T08:16:22;10.38;;;5.07;;
74791;SDS011;63319;46.046;17.802;2023-01-29T08:19:26;10.73;;;6.30;;
74791;SDS011;63319;46.046;17.802;2023-01-29T08:22:28;10.53;;;5.73;;
74791;SDS011;63319;46.046;17.802;2023-01-29T08:25:32;10.63;;;6.03;;
74791;SDS011;63319;46.046;17.802;2023-01-29T08:28:36;10.68;;;6.20;;
74791;SDS011;63319;46.046;17.802;2023-01-29T08:31:40;11.55;;;6.20;;
74791;SDS011;63319;46.046;17.802;2023-01-29T08:34:46;9.70;;;5.22;;
74791;SDS011;63319;46.046;17.802;2023-01-29T08:37:53;10.90;;;6.30;;
74791;SDS011;63319;46.046;17.802;2023-01-29T08:40:57;9.73;;;5.40;;
74791;SDS011;63319;46.046;17.802;2023-01-29T08:44:00;10.50;;;5.45;;
74791;SDS011;63319;46.046;17.802;2023-01-29T08:47:08;8.77;;;5.13;;
74791;SDS011;63319;46.046;17.802;2023-01-29T08:50:11;9.55;;;5.30;;
74791;SDS011;63319;46.046;17.802;2023-01-29T08:53:14;9.77;;;5.40;;
74791;SDS011;63319;46.046;17.802;2023-01-29T08:56:17;9.77;;;5.27;;
74791;SDS011;63319;46.046;17.802;2023-01-29T08:59:20;9.90;;;5.60;;
74791;SDS011;63319;46.046;17.802;2023-01-29T09:02:24;9.88;;;5.70;;
74791;SDS011;63319;46.046;17.802;2023-01-29T09:05:27;9.15;;;5.50;;
74791;SDS011;63319;46.046;17.802;2023-01-29T09:08:30;9.70;;;5.80;;
74791;SDS011;63319;46.046;17.802;2023-01-29T09:11:33;10.23;;;5.57;;
74791;SDS011;63319;46.046;17.802;2023-01-29T09:14:36;11.38;;;5.82;;
74791;SDS011;63319;46.046;17.802;2023-01-29T09:17:39;10.05;;;5.28;;
74791;SDS011;63319;46.046;17.802;2023-01-29T09:20:42;9.13;;;5.60;;
74791;SDS011;63319;46.046;17.802;2023-01-29T09:23:45;9.37;;;5.60;;
74791;SDS011;63319;46.046;17.802;2023-01-29T09:26:54;9.60;;;5.60;;
74791;SDS011;63319;46.046;17.802;2023-01-29T09:29:57;9.38;;;5.55;;
74791;SDS011;63319;46.046;17.802;2023-01-29T09:33:03;9.02;;;5.35;;
74791;SDS011;63319;46.046;17.802;2023-01-29T09:36:09;9.68;;;5.45;;
74791;SDS011;63319;46.046;17.802;2023-01-29T09:39:12;9.53;;;5.33;;
74791;SDS011;63319;46.046;17.802;2023-01-29T09:45:26;9.35;;;5.10;;
74791;SDS011;63319;46.046;17.802;2023-01-29T09:48:31;9.23;;;5.13;;
74791;SDS011;63319;46.046;17.802;2023-01-29T09:51:40;9.23;;;5.28;;
74791;SDS011;63319;46.046;17.802;2023-01-29T09:54:56;9.00;;;5.07;;
74791;SDS011;63319;46.046;17.802;2023-01-29T10:08:05;8.05;;;4.85;;
74791;SDS011;63319;46.046;17.802;2023-01-29T10:24:50;9.00;;;5.40;;
74791;SDS011;63319;46.046;17.802;2023-01-29T10:27:57;8.53;;;4.90;;
74791;SDS011;63319;46.046;17.802;2023-01-29T10:31:06;8.07;;;4.73;;
74791;SDS011;63319;46.046;17.802;2023-01-29T10:34:16;8.40;;;4.85;;
74791;SDS011;63319;46.046;17.802;2023-01-29T10:37:41;8.98;;;5.25;;
74791;SDS011;63319;46.046;17.802;2023-01-29T10:40:56;8.90;;;4.93;;
74791;SDS011;63319;46.046;17.802;2023-01-29T10:47:47;7.83;;;4.70;;
74791;SDS011;63319;46.046;17.802;2023-01-29T10:51:21;8.40;;;4.45;;
74791;SDS011;63319;46.046;17.802;2023-01-29T11:01:25;7.80;;;4.30;;
74791;SDS011;63319;46.046;17.802;2023-01-29T11:04:29;8.20;;;4.80;;
74791;SDS011;63319;46.046;17.802;2023-01-29T11:07:33;8.68;;;4.75;;
74791;SDS011;63319;46.046;17.802;2023-01-29T11:10:49;8.38;;;4.93;;
74791;SDS011;63319;46.046;17.802;2023-01-29T11:14:11;8.57;;;4.75;;
74791;SDS011;63319;46.046;17.802;2023-01-29T11:17:19;8.37;;;4.70;;
74791;SDS011;63319;46.046;17.802;2023-01-29T11:20:27;8.43;;;4.67;;
74791;SDS011;63319;46.046;17.802;2023-01-29T11:23:32;7.53;;;4.15;;
74791;SDS011;63319;46.046;17.802;2023-01-29T11:26:37;8.27;;;4.70;;
74791;SDS011;63319;46.046;17.802;2023-01-29T11:29:45;8.45;;;4.30;;
74791;SDS011;63319;46.046;17.802;2023-01-29T11:32:58;8.03;;;4.57;;
74791;SDS011;63319;46.046;17.802;2023-01-29T11:36:25;8.13;;;4.30;;
74791;SDS011;63319;46.046;17.802;2023-01-29T11:39:48;8.60;;;5.20;;
74791;SDS011;63319;46.046;17.802;2023-01-29T11:42:52;8.50;;;4.55;;
74791;SDS011;63319;46.046;17.802;2023-01-29T11:46:04;8.77;;;4.65;;
74791;SDS011;63319;46.046;17.802;2023-01-29T11:49:23;7.77;;;4.70;;
74791;SDS011;63319;46.046;17.802;2023-01-29T11:52:34;7.30;;;4.07;;
74791;SDS011;63319;46.046;17.802;2023-01-29T11:55:40;8.68;;;4.50;;
74791;SDS011;63319;46.046;17.802;2023-01-29T11:58:52;7.30;;;4.53;;
74791;SDS011;63319;46.046;17.802;2023-01-29T12:05:22;7.57;;;4.37;;
74791;SDS011;63319;46.046;17.802;2023-01-29T12:08:28;7.47;;;4.47;;
74791;SDS011;63319;46.046;17.802;2023-01-29T12:11:37;7.30;;;4.47;;
74791;SDS011;63319;46.046;17.802;2023-01-29T12:14:40;9.07;;;4.50;;
74791;SDS011;63319;46.046;17.802;2023-01-29T12:17:49;9.15;;;4.80;;
74791;SDS011;63319;46.046;17.802;2023-01-29T12:21:02;7.40;;;3.57;;
74791;SDS011;63319;46.046;17.802;2023-01-29T12:31:06;8.70;;;4.65;;
74791;SDS011;63319;46.046;17.802;2023-01-29T12:41:24;8.13;;;4.20;;
74791;SDS011;63319;46.046;17.802;2023-01-29T12:48:00;7.43;;;4.20;;
74791;SDS011;63319;46.046;17.802;2023-01-29T12:51:12;6.78;;;3.63;;
74791;SDS011;63319;46.046;17.802;2023-01-29T12:54:35;7.03;;;3.90;;
74791;SDS011;63319;46.046;17.802;2023-01-29T13:00:49;8.15;;;4.60;;
74791;SDS011;63319;46.046;17.802;2023-01-29T13:07:24;7.47;;;4.60;;
74791;SDS011;63319;46.046;17.802;2023-01-29T13:10:35;8.17;;;4.47;;
74791;SDS011;63319;46.046;17.802;2023-01-29T13:13:51;7.77;;;4.50;;
74791;SDS011;63319;46.046;17.802;2023-01-29T13:20:28;7.68;;;4.15;;
74791;SDS011;63319;46.046;17.802;2023-01-29T13:23:36;7.43;;;3.85;;
74791;SDS011;63319;46.046;17.802;2023-01-29T13:26:45;8.03;;;4.40;;
74791;SDS011;63319;46.046;17.802;2023-01-29T13:29:49;7.60;;;3.87;;
74791;SDS011;63319;46.046;17.802;2023-01-29T13:32:53;7.88;;;4.18;;
74791;SDS011;63319;46.046;17.802;2023-01-29T13:36:13;7.68;;;4.18;;
74791;SDS011;63319;46.046;17.802;2023-01-29T13:39:31;8.27;;;4.35;;
74791;SDS011;63319;46.046;17.802;2023-01-29T13:45:43;7.40;;;4.30;;
74791;SDS011;63319;46.046;17.802;2023-01-29T13:48:47;7.63;;;4.40;;
74791;SDS011;63319;46.046;17.802;2023-01-29T13:51:54;7.70;;;4.15;;
74791;SDS011;63319;46.046;17.802;2023-01-29T13:55:01;6.80;;;3.60;;
74791;SDS011;63319;46.046;17.802;2023-01-29T14:04:50;6.93;;;3.80;;
74791;SDS011;63319;46.046;17.802;2023-01-29T14:07:54;7.75;;;4.38;;
74791;SDS011;63319;46.046;17.802;2023-01-29T14:17:58;7.83;;;4.73;;
74791;SDS011;63319;46.046;17.802;2023-01-29T14:21:24;7.07;;;4.10;;
74791;SDS011;63319;46.046;17.802;2023-01-29T14:24:31;8.15;;;4.22;;
74791;SDS011;63319;46.046;17.802;2023-01-29T14:27:35;7.80;;;4.28;;
74791;SDS011;63319;46.046;17.802;2023-01-29T14:30:39;8.27;;;4.47;;
74791;SDS011;63319;46.046;17.802;2023-01-29T14:33:52;7.77;;;4.30;;
74791;SDS011;63319;46.046;17.802;2023-01-29T14:36:57;8.35;;;4.40;;
74791;SDS011;63319;46.046;17.802;2023-01-29T14:43:21;7.90;;;4.63;;
74791;SDS011;63319;46.046;17.802;2023-01-29T14:57:00;7.65;;;4.38;;
74791;SDS011;63319;46.046;17.802;2023-01-29T15:00:24;7.35;;;4.50;;
74791;SDS011;63319;46.046;17.802;2023-01-29T15:04:13;7.40;;;3.97;;
74791;SDS011;63319;46.046;17.802;2023-01-29T15:10:39;7.20;;;3.78;;
74791;SDS011;63319;46.046;17.802;2023-01-29T15:13:52;7.28;;;4.03;;
74791;SDS011;63319;46.046;17.802;2023-01-29T15:17:27;6.43;;;3.47;;
74791;SDS011;63319;46.046;17.802;2023-01-29T15:20:40;7.83;;;4.33;;
74791;SDS011;63319;46.046;17.802;2023-01-29T15:23:45;6.73;;;3.70;;
74791;SDS011;63319;46.046;17.802;2023-01-29T15:26:54;6.85;;;4.30;;
74791;SDS011;63319;46.046;17.802;2023-01-29T15:29:59;7.78;;;3.95;;
74791;SDS011;63319;46.046;17.802;2023-01-29T15:33:06;7.93;;;3.92;;
74791;SDS011;63319;46.046;17.802;2023-01-29T15:36:22;6.80;;;3.77;;
74791;SDS011;63319;46.046;17.802;2023-01-29T15:39:29;7.43;;;3.60;;
74791;SDS011;63319;46.046;17.802;2023-01-29T15:42:45;8.15;;;4.20;;
74791;SDS011;63319;46.046;17.802;2023-01-29T15:45:50;6.70;;;3.58;;
74791;SDS011;63319;46.046;17.802;2023-01-29T15:49:06;6.97;;;3.97;;
74791;SDS011;63319;46.046;17.802;2023-01-29T15:52:16;6.03;;;3.27;;
74791;SDS011;63319;46.046;17.802;2023-01-29T15:55:21;7.57;;;4.30;;
74791;SDS011;63319;46.046;17.802;2023-01-29T15:58:27;6.97;;;4.00;;
74791;SDS011;63319;46.046;17.802;2023-01-29T16:01:33;7.88;;;4.38;;
74791;SDS011;63319;46.046;17.802;2023-01-29T16:04:37;7.68;;;4.32;;
74791;SDS011;63319;46.046;17.802;2023-01-29T16:07:40;7.77;;;4.30;;
74791;SDS011;63319;46.046;17.802;2023-01-29T16:10:47;7.47;;;4.00;;
74791;SDS011;63319;46.046;17.802;2023-01-29T16:13:55;7.63;;;4.45;;
74791;SDS011;63319;46.046;17.802;2023-01-29T16:17:09;7.50;;;3.90;;
74791;SDS011;63319;46.046;17.802;2023-01-29T16:20:39;6.45;;;3.55;;
74791;SDS011;63319;46.046;17.802;2023-01-29T16:23:48;7.30;;;4.13;;
74791;SDS011;63319;46.046;17.802;2023-01-29T16:26:58;7.37;;;4.07;;
74791;SDS011;63319;46.046;17.802;2023-01-29T16:30:04;6.95;;;4.13;;
74791;SDS011;63319;46.046;17.802;2023-01-29T16:33:38;6.57;;;3.67;;
74791;SDS011;63319;46.046;17.802;2023-01-29T16:36:45;6.97;;;3.83;;
74791;SDS011;63319;46.046;17.802;2023-01-29T16:39:52;8.00;;;4.13;;
74791;SDS011;63319;46.046;17.802;2023-01-29T16:43:05;6.80;;;3.77;;
74791;SDS011;63319;46.046;17.802;2023-01-29T16:46:22;7.55;;;4.30;;
74791;SDS011;63319;46.046;17.802;2023-01-29T16:52:36;7.45;;;4.10;;
74791;SDS011;63319;46.046;17.802;2023-01-29T16:55:41;8.07;;;4.43;;
74791;SDS011;63319;46.046;17.802;2023-01-29T16:58:54;7.20;;;4.03;;
74791;SDS011;63319;46.046;17.802;2023-01-29T17:02:20;8.48;;;4.50;;
74791;SDS011;63319;46.046;17.802;2023-01-29T17:05:29;7.90;;;4.03;;
74791;SDS011;63319;46.046;17.802;2023-01-29T17:08:36;7.88;;;4.30;;
74791;SDS011;63319;46.046;17.802;2023-01-29T17:11:44;7.77;;;4.10;;
74791;SDS011;63319;46.046;17.802;2023-01-29T17:14:52;7.40;;;3.83;;
74791;SDS011;63319;46.046;17.802;2023-01-29T17:18:02;7.40;;;4.03;;
74791;SDS011;63319;46.046;17.802;2023-01-29T17:21:08;7.47;;;4.03;;
74791;SDS011;63319;46.046;17.802;2023-01-29T17:24:13;7.40;;;4.38;;
74791;SDS011;63319;46.046;17.802;2023-01-29T17:27:20;7.60;;;4.10;;
74791;SDS011;63319;46.046;17.802;2023-01-29T17:30:29;7.73;;;4.13;;
74791;SDS011;63319;46.046;17.802;2023-01-29T17:33:40;7.43;;;4.22;;
74791;SDS011;63319;46.046;17.802;2023-01-29T17:36:47;7.95;;;4.07;;
74791;SDS011;63319;46.046;17.802;2023-01-29T17:39:51;7.28;;;4.20;;
74791;SDS011;63319;46.046;17.802;2023-01-29T17:42:58;7.27;;;3.57;;
74791;SDS011;63319;46.046;17.802;2023-01-29T17:46:02;8.20;;;4.60;;
74791;SDS011;63319;46.046;17.802;2023-01-29T17:52:22;7.53;;;4.15;;
74791;SDS011;63319;46.046;17.802;2023-01-29T17:55:26;7.28;;;3.78;;
74791;SDS011;63319;46.046;17.802;2023-01-29T17:58:31;7.17;;;4.10;;
74791;SDS011;63319;46.046;17.802;2023-01-29T18:01:35;7.40;;;4.07;;
74791;SDS011;63319;46.046;17.802;2023-01-29T18:04:39;7.22;;;4.05;;
74791;SDS011;63319;46.046;17.802;2023-01-29T18:07:46;7.75;;;4.30;;
74791;SDS011;63319;46.046;17.802;2023-01-29T18:10:50;7.28;;;3.80;;
74791;SDS011;63319;46.046;17.802;2023-01-29T18:13:56;6.30;;;3.50;;
74791;SDS011;63319;46.046;17.802;2023-01-29T18:17:16;7.27;;;4.23;;
74791;SDS011;63319;46.046;17.802;2023-01-29T18:20:25;6.85;;;4.15;;
74791;SDS011;63319;46.046;17.802;2023-01-29T18:23:31;6.57;;;3.65;;
74791;SDS011;63319;46.046;17.802;2023-01-29T18:26:35;7.03;;;3.80;;
74791;SDS011;63319;46.046;17.802;2023-01-29T18:29:40;6.93;;;3.80;;
74791;SDS011;63319;46.046;17.802;2023-01-29T18:32:45;6.77;;;3.90;;
74791;SDS011;63319;46.046;17.802;2023-01-29T18:35:49;7.65;;;3.88;;
74791;SDS011;63319;46.046;17.802;2023-01-29T18:38:55;7.80;;;3.88;;
74791;SDS011;63319;46.046;17.802;2023-01-29T18:41:59;7.15;;;4.00;;
74791;SDS011;63319;46.046;17.802;2023-01-29T18:45:05;7.20;;;4.03;;
74791;SDS011;63319;46.046;17.802;2023-01-29T18:48:10;7.00;;;4.10;;
74791;SDS011;63319;46.046;17.802;2023-01-29T18:51:15;7.40;;;4.03;;
74791;SDS011;63319;46.046;17.802;2023-01-29T18:54:19;7.10;;;4.00;;
74791;SDS011;63319;46.046;17.802;2023-01-29T18:57:24;7.28;;;3.90;;
74791;SDS011;63319;46.046;17.802;2023-01-29T19:00:48;7.80;;;3.87;;
74791;SDS011;63319;46.046;17.802;2023-01-29T19:03:53;8.10;;;4.60;;
74791;SDS011;63319;46.046;17.802;2023-01-29T19:06:58;6.63;;;3.60;;
74791;SDS011;63319;46.046;17.802;2023-01-29T19:10:03;7.32;;;4.20;;
74791;SDS011;63319;46.046;17.802;2023-01-29T19:13:15;7.47;;;4.40;;
74791;SDS011;63319;46.046;17.802;2023-01-29T19:16:19;7.30;;;4.27;;
74791;SDS011;63319;46.046;17.802;2023-01-29T19:19:26;6.53;;;3.73;;
74791;SDS011;63319;46.046;17.802;2023-01-29T19:22:32;6.95;;;3.90;;
74791;SDS011;63319;46.046;17.802;2023-01-29T19:25:37;7.97;;;4.38;;
74791;SDS011;63319;46.046;17.802;2023-01-29T19:28:42;8.55;;;4.50;;
74791;SDS011;63319;46.046;17.802;2023-01-29T19:31:48;8.37;;;4.43;;
74791;SDS011;63319;46.046;17.802;2023-01-29T19:34:52;7.37;;;4.23;;
74791;SDS011;63319;46.046;17.802;2023-01-29T19:37:55;7.22;;;4.35;;
74791;SDS011;63319;46.046;17.802;2023-01-29T19:41:00;7.05;;;3.70;;
74791;SDS011;63319;46.046;17.802;2023-01-29T19:44:04;8.13;;;4.25;;
74791;SDS011;63319;46.046;17.802;2023-01-29T19:47:08;6.80;;;3.77;;
74791;SDS011;63319;46.046;17.802;2023-01-29T19:50:12;7.27;;;3.90;;
74791;SDS011;63319;46.046;17.802;2023-01-29T19:53:17;7.32;;;4.13;;
74791;SDS011;63319;46.046;17.802;2023-01-29T19:56:21;7.82;;;4.35;;
74791;SDS011;63319;46.046;17.802;2023-01-29T19:59:26;6.80;;;3.78;;
74791;SDS011;63319;46.046;17.802;2023-01-29T20:02:31;7.70;;;4.20;;
74791;SDS011;63319;46.046;17.802;2023-01-29T20:05:36;5.87;;;3.53;;
74791;SDS011;63319;46.046;17.802;2023-01-29T20:08:59;7.68;;;4.40;;
74791;SDS011;63319;46.046;17.802;2023-01-29T20:12:04;7.05;;;3.67;;
74791;SDS011;63319;46.046;17.802;2023-01-29T20:15:10;6.80;;;4.10;;
74791;SDS011;63319;46.046;17.802;2023-01-29T20:18:16;7.33;;;4.17;;
74791;SDS011;63319;46.046;17.802;2023-01-29T20:21:23;7.20;;;3.77;;
74791;SDS011;63319;46.046;17.802;2023-01-29T20:24:27;7.22;;;4.25;;
74791;SDS011;63319;46.046;17.802;2023-01-29T20:27:33;8.13;;;4.30;;
74791;SDS011;63319;46.046;17.802;2023-01-29T20:30:38;7.43;;;4.20;;
74791;SDS011;63319;46.046;17.802;2023-01-29T20:33:45;7.47;;;4.10;;
74791;SDS011;63319;46.046;17.802;2023-01-29T20:36:50;8.57;;;4.40;;
74791;SDS011;63319;46.046;17.802;2023-01-29T20:39:55;8.25;;;4.80;;
74791;SDS011;63319;46.046;17.802;2023-01-29T20:43:00;8.50;;;4.53;;
74791;SDS011;63319;46.046;17.802;2023-01-29T20:46:04;7.65;;;4.43;;
74791;SDS011;63319;46.046;17.802;2023-01-29T20:49:07;8.17;;;4.50;;
74791;SDS011;63319;46.046;17.802;2023-01-29T20:52:12;8.33;;;4.50;;
74791;SDS011;63319;46.046;17.802;2023-01-29T20:55:16;7.47;;;4.05;;
74791;SDS011;63319;46.046;17.802;2023-01-29T20:58:22;8.00;;;4.43;;
74791;SDS011;63319;46.046;17.802;2023-01-29T21:01:26;8.55;;;4.80;;
74791;SDS011;63319;46.046;17.802;2023-01-29T21:04:31;7.73;;;4.30;;
74791;SDS011;63319;46.046;17.802;2023-01-29T21:07:36;8.03;;;4.67;;
74791;SDS011;63319;46.046;17.802;2023-01-29T21:10:40;8.13;;;4.18;;
74791;SDS011;63319;46.046;17.802;2023-01-29T21:13:45;8.02;;;4.53;;